sensor_id;sensor_type;location;lat;lon;timestamp;P1;durP1;ratioP1;P2;durP2;ratioP2
68680;SDS011;55836;49.858;6.756;2023-03-21T00:02:19;6.47;;;2.30;;
68680;SDS011;55836;49.858;6.756;2023-03-21T00:04:48;7.70;;;3.03;;
68680;SDS011;55836;49.858;6.756;2023-03-21T00:07:14;8.73;;;3.43;;
68680;SDS011;55836;49.858;6.756;2023-03-21T00:09:40;6.93;;;3.77;;
68680;SDS011;55836;49.858;6.756;2023-03-21T00:12:06;7.27;;;3.60;;
68680;SDS011;55836;49.858;6.756;2023-03-21T00:14:34;7.20;;;3.30;;
68680;SDS011;55836;49.858;6.756;2023-03-21T00:17:02;8.27;;;3.50;;
68680;SDS011;55836;49.858;6.756;2023-03-21T00:19:28;4.53;;;2.63;;
68680;SDS011;55836;49.858;6.756;2023-03-21T00:21:54;8.83;;;2.97;;
68680;SDS011;55836;49.858;6.756;2023-03-21T00:24:21;8.40;;;3.00;;
68680;SDS011;55836;49.858;6.756;2023-03-21T00:26:48;7.10;;;3.00;;
68680;SDS011;55836;49.858;6.756;2023-03-21T00:29:14;5.57;;;2.70;;
68680;SDS011;55836;49.858;6.756;2023-03-21T00:31:40;6.13;;;2.83;;
68680;SDS011;55836;49.858;6.756;2023-03-21T00:34:06;8.83;;;2.37;;
68680;SDS011;55836;49.858;6.756;2023-03-21T00:36:32;6.07;;;3.00;;
68680;SDS011;55836;49.858;6.756;2023-03-21T00:38:58;5.97;;;2.63;;
68680;SDS011;55836;49.858;6.756;2023-03-21T00:41:25;5.63;;;2.40;;
68680;SDS011;55836;49.858;6.756;2023-03-21T00:43:51;6.90;;;2.90;;
68680;SDS011;55836;49.858;6.756;2023-03-21T00:46:19;6.90;;;2.53;;
68680;SDS011;55836;49.858;6.756;2023-03-21T00:48:45;3.87;;;2.67;;
68680;SDS011;55836;49.858;6.756;2023-03-21T00:51:18;6.13;;;3.40;;
68680;SDS011;55836;49.858;6.756;2023-03-21T00:53:54;4.67;;;2.43;;
68680;SDS011;55836;49.858;6.756;2023-03-21T00:56:21;8.87;;;3.30;;
68680;SDS011;55836;49.858;6.756;2023-03-21T00:58:47;5.00;;;2.93;;
68680;SDS011;55836;49.858;6.756;2023-03-21T01:01:13;6.80;;;3.07;;
68680;SDS011;55836;49.858;6.756;2023-03-21T01:03:39;6.30;;;3.20;;
68680;SDS011;55836;49.858;6.756;2023-03-21T01:06:12;6.13;;;3.53;;
68680;SDS011;55836;49.858;6.756;2023-03-21T01:08:39;6.83;;;3.13;;
68680;SDS011;55836;49.858;6.756;2023-03-21T01:11:11;5.20;;;2.90;;
68680;SDS011;55836;49.858;6.756;2023-03-21T01:13:38;8.80;;;3.10;;
68680;SDS011;55836;49.858;6.756;2023-03-21T01:16:05;4.73;;;2.70;;
68680;SDS011;55836;49.858;6.756;2023-03-21T01:18:32;6.63;;;3.10;;
68680;SDS011;55836;49.858;6.756;2023-03-21T01:20:59;4.83;;;2.63;;
68680;SDS011;55836;49.858;6.756;2023-03-21T01:23:26;5.53;;;2.87;;
68680;SDS011;55836;49.858;6.756;2023-03-21T01:25:53;5.30;;;2.57;;
68680;SDS011;55836;49.858;6.756;2023-03-21T01:28:20;8.53;;;3.20;;
68680;SDS011;55836;49.858;6.756;2023-03-21T01:30:46;6.13;;;3.30;;
68680;SDS011;55836;49.858;6.756;2023-03-21T01:33:12;8.47;;;3.13;;
68680;SDS011;55836;49.858;6.756;2023-03-21T01:35:39;6.83;;;3.40;;
68680;SDS011;55836;49.858;6.756;2023-03-21T01:38:05;6.53;;;3.03;;
68680;SDS011;55836;49.858;6.756;2023-03-21T01:40:31;9.00;;;3.17;;
68680;SDS011;55836;49.858;6.756;2023-03-21T01:42:57;6.53;;;3.70;;
68680;SDS011;55836;49.858;6.756;2023-03-21T01:48:08;5.90;;;3.43;;
68680;SDS011;55836;49.858;6.756;2023-03-21T01:50:35;7.90;;;3.77;;
68680;SDS011;55836;49.858;6.756;2023-03-21T01:53:01;7.83;;;3.90;;
68680;SDS011;55836;49.858;6.756;2023-03-21T01:55:28;6.87;;;3.47;;
68680;SDS011;55836;49.858;6.756;2023-03-21T01:57:55;9.40;;;3.70;;
68680;SDS011;55836;49.858;6.756;2023-03-21T02:00:22;7.17;;;3.27;;
68680;SDS011;55836;49.858;6.756;2023-03-21T02:02:49;7.07;;;3.30;;
68680;SDS011;55836;49.858;6.756;2023-03-21T02:05:22;6.27;;;2.43;;
68680;SDS011;55836;49.858;6.756;2023-03-21T02:07:49;5.00;;;2.50;;
68680;SDS011;55836;49.858;6.756;2023-03-21T02:10:19;4.60;;;2.80;;
68680;SDS011;55836;49.858;6.756;2023-03-21T02:12:45;8.63;;;2.60;;
68680;SDS011;55836;49.858;6.756;2023-03-21T02:15:11;4.83;;;2.67;;
68680;SDS011;55836;49.858;6.756;2023-03-21T02:17:44;9.03;;;2.70;;
68680;SDS011;55836;49.858;6.756;2023-03-21T02:20:21;7.83;;;2.60;;
68680;SDS011;55836;49.858;6.756;2023-03-21T02:30:33;7.37;;;2.73;;
68680;SDS011;55836;49.858;6.756;2023-03-21T02:38:29;6.13;;;2.60;;
68680;SDS011;55836;49.858;6.756;2023-03-21T02:41:16;6.70;;;2.63;;
68680;SDS011;55836;49.858;6.756;2023-03-21T02:46:36;7.47;;;3.63;;
68680;SDS011;55836;49.858;6.756;2023-03-21T02:49:25;7.50;;;2.87;;
68680;SDS011;55836;49.858;6.756;2023-03-21T02:51:52;9.97;;;2.97;;
68680;SDS011;55836;49.858;6.756;2023-03-21T02:54:21;10.60;;;3.63;;
68680;SDS011;55836;49.858;6.756;2023-03-21T02:56:48;6.67;;;2.70;;
68680;SDS011;55836;49.858;6.756;2023-03-21T02:59:15;7.73;;;3.40;;
68680;SDS011;55836;49.858;6.756;2023-03-21T03:01:42;4.53;;;2.83;;
68680;SDS011;55836;49.858;6.756;2023-03-21T03:06:52;4.33;;;2.83;;
68680;SDS011;55836;49.858;6.756;2023-03-21T03:12:34;7.50;;;4.23;;
68680;SDS011;55836;49.858;6.756;2023-03-21T03:17:42;9.07;;;3.70;;
68680;SDS011;55836;49.858;6.756;2023-03-21T03:22:40;5.67;;;3.93;;
68680;SDS011;55836;49.858;6.756;2023-03-21T03:25:08;9.30;;;4.30;;
68680;SDS011;55836;49.858;6.756;2023-03-21T03:27:38;8.57;;;4.10;;
68680;SDS011;55836;49.858;6.756;2023-03-21T03:30:06;6.50;;;3.70;;
68680;SDS011;55836;49.858;6.756;2023-03-21T03:35:02;5.10;;;3.20;;
68680;SDS011;55836;49.858;6.756;2023-03-21T03:37:30;10.00;;;4.00;;
68680;SDS011;55836;49.858;6.756;2023-03-21T03:40:03;7.87;;;3.60;;
68680;SDS011;55836;49.858;6.756;2023-03-21T03:42:32;6.60;;;3.80;;
68680;SDS011;55836;49.858;6.756;2023-03-21T03:45:00;6.40;;;3.37;;
68680;SDS011;55836;49.858;6.756;2023-03-21T03:47:32;8.57;;;3.10;;
68680;SDS011;55836;49.858;6.756;2023-03-21T03:55:01;7.87;;;2.80;;
68680;SDS011;55836;49.858;6.756;2023-03-21T03:57:27;12.40;;;3.77;;
68680;SDS011;55836;49.858;6.756;2023-03-21T03:59:54;6.73;;;2.77;;
68680;SDS011;55836;49.858;6.756;2023-03-21T04:02:20;8.07;;;3.10;;
68680;SDS011;55836;49.858;6.756;2023-03-21T04:04:46;5.20;;;2.77;;
68680;SDS011;55836;49.858;6.756;2023-03-21T04:09:44;4.93;;;2.43;;
68680;SDS011;55836;49.858;6.756;2023-03-21T04:12:11;7.33;;;3.17;;
68680;SDS011;55836;49.858;6.756;2023-03-21T04:14:37;6.83;;;3.23;;
68680;SDS011;55836;49.858;6.756;2023-03-21T04:17:03;11.07;;;3.47;;
68680;SDS011;55836;49.858;6.756;2023-03-21T04:19:29;9.83;;;2.90;;
68680;SDS011;55836;49.858;6.756;2023-03-21T04:21:56;5.40;;;3.03;;
68680;SDS011;55836;49.858;6.756;2023-03-21T04:24:22;7.77;;;2.97;;
68680;SDS011;55836;49.858;6.756;2023-03-21T04:26:48;4.17;;;2.47;;
68680;SDS011;55836;49.858;6.756;2023-03-21T04:29:17;6.73;;;3.10;;
68680;SDS011;55836;49.858;6.756;2023-03-21T04:31:44;5.03;;;4.13;;
68680;SDS011;55836;49.858;6.756;2023-03-21T04:34:13;6.40;;;3.00;;
68680;SDS011;55836;49.858;6.756;2023-03-21T04:36:40;4.80;;;3.60;;
68680;SDS011;55836;49.858;6.756;2023-03-21T04:39:13;7.07;;;3.73;;
68680;SDS011;55836;49.858;6.756;2023-03-21T04:41:40;8.63;;;3.20;;
68680;SDS011;55836;49.858;6.756;2023-03-21T04:44:07;5.80;;;3.40;;
68680;SDS011;55836;49.858;6.756;2023-03-21T04:46:33;5.80;;;3.17;;
68680;SDS011;55836;49.858;6.756;2023-03-21T04:48:59;6.17;;;3.17;;
68680;SDS011;55836;49.858;6.756;2023-03-21T04:51:26;5.30;;;3.00;;
68680;SDS011;55836;49.858;6.756;2023-03-21T04:53:52;5.33;;;3.50;;
68680;SDS011;55836;49.858;6.756;2023-03-21T04:56:22;7.60;;;3.37;;
68680;SDS011;55836;49.858;6.756;2023-03-21T04:58:54;8.47;;;3.57;;
68680;SDS011;55836;49.858;6.756;2023-03-21T05:01:20;6.03;;;3.63;;
68680;SDS011;55836;49.858;6.756;2023-03-21T05:03:46;4.87;;;3.17;;
68680;SDS011;55836;49.858;6.756;2023-03-21T05:06:12;9.30;;;3.70;;
68680;SDS011;55836;49.858;6.756;2023-03-21T05:08:38;7.80;;;3.73;;
68680;SDS011;55836;49.858;6.756;2023-03-21T05:11:05;5.37;;;3.33;;
68680;SDS011;55836;49.858;6.756;2023-03-21T05:13:31;4.90;;;2.77;;
68680;SDS011;55836;49.858;6.756;2023-03-21T05:15:57;8.60;;;3.40;;
68680;SDS011;55836;49.858;6.756;2023-03-21T05:18:23;8.17;;;2.97;;
68680;SDS011;55836;49.858;6.756;2023-03-21T05:20:50;5.50;;;3.10;;
68680;SDS011;55836;49.858;6.756;2023-03-21T05:23:20;8.83;;;3.70;;
68680;SDS011;55836;49.858;6.756;2023-03-21T05:25:46;5.23;;;3.20;;
68680;SDS011;55836;49.858;6.756;2023-03-21T05:28:13;6.10;;;3.20;;
68680;SDS011;55836;49.858;6.756;2023-03-21T05:30:42;6.60;;;3.17;;
68680;SDS011;55836;49.858;6.756;2023-03-21T05:33:08;6.23;;;3.07;;
68680;SDS011;55836;49.858;6.756;2023-03-21T05:35:34;6.73;;;3.20;;
68680;SDS011;55836;49.858;6.756;2023-03-21T05:38:00;6.77;;;3.40;;
68680;SDS011;55836;49.858;6.756;2023-03-21T05:40:26;5.87;;;2.93;;
68680;SDS011;55836;49.858;6.756;2023-03-21T05:42:52;6.97;;;3.20;;
68680;SDS011;55836;49.858;6.756;2023-03-21T05:45:18;9.53;;;4.03;;
68680;SDS011;55836;49.858;6.756;2023-03-21T05:47:44;6.97;;;3.70;;
68680;SDS011;55836;49.858;6.756;2023-03-21T05:50:11;10.90;;;4.80;;
68680;SDS011;55836;49.858;6.756;2023-03-21T05:52:37;8.23;;;4.70;;
68680;SDS011;55836;49.858;6.756;2023-03-21T05:55:04;10.63;;;5.43;;
68680;SDS011;55836;49.858;6.756;2023-03-21T05:57:30;7.07;;;5.83;;
68680;SDS011;55836;49.858;6.756;2023-03-21T05:59:59;10.23;;;6.10;;
68680;SDS011;55836;49.858;6.756;2023-03-21T06:02:25;13.97;;;6.07;;
68680;SDS011;55836;49.858;6.756;2023-03-21T06:04:51;11.90;;;5.20;;
68680;SDS011;55836;49.858;6.756;2023-03-21T06:07:17;7.90;;;5.50;;
68680;SDS011;55836;49.858;6.756;2023-03-21T06:09:43;7.77;;;5.23;;
68680;SDS011;55836;49.858;6.756;2023-03-21T06:12:09;9.03;;;5.30;;
68680;SDS011;55836;49.858;6.756;2023-03-21T06:14:36;11.03;;;5.17;;
68680;SDS011;55836;49.858;6.756;2023-03-21T06:17:02;10.17;;;5.33;;
68680;SDS011;55836;49.858;6.756;2023-03-21T06:19:28;9.67;;;5.53;;
68680;SDS011;55836;49.858;6.756;2023-03-21T06:21:54;12.03;;;4.40;;
68680;SDS011;55836;49.858;6.756;2023-03-21T06:24:20;9.37;;;5.87;;
68680;SDS011;55836;49.858;6.756;2023-03-21T06:26:46;8.47;;;5.53;;
68680;SDS011;55836;49.858;6.756;2023-03-21T06:29:12;11.90;;;5.73;;
68680;SDS011;55836;49.858;6.756;2023-03-21T06:31:38;9.60;;;6.17;;
68680;SDS011;55836;49.858;6.756;2023-03-21T06:34:04;7.37;;;5.60;;
68680;SDS011;55836;49.858;6.756;2023-03-21T06:36:30;10.87;;;6.33;;
68680;SDS011;55836;49.858;6.756;2023-03-21T06:38:56;11.47;;;6.17;;
68680;SDS011;55836;49.858;6.756;2023-03-21T06:41:22;9.07;;;5.80;;
68680;SDS011;55836;49.858;6.756;2023-03-21T06:43:48;8.27;;;5.30;;
68680;SDS011;55836;49.858;6.756;2023-03-21T06:46:15;9.17;;;5.43;;
68680;SDS011;55836;49.858;6.756;2023-03-21T06:48:41;8.53;;;6.23;;
68680;SDS011;55836;49.858;6.756;2023-03-21T06:51:09;11.97;;;5.10;;
68680;SDS011;55836;49.858;6.756;2023-03-21T06:53:35;9.63;;;5.37;;
68680;SDS011;55836;49.858;6.756;2023-03-21T06:56:01;11.90;;;5.33;;
68680;SDS011;55836;49.858;6.756;2023-03-21T06:58:27;7.67;;;5.37;;
68680;SDS011;55836;49.858;6.756;2023-03-21T07:00:53;10.10;;;4.87;;
68680;SDS011;55836;49.858;6.756;2023-03-21T07:03:19;11.17;;;5.30;;
68680;SDS011;55836;49.858;6.756;2023-03-21T07:05:47;8.47;;;5.40;;
68680;SDS011;55836;49.858;6.756;2023-03-21T07:08:13;9.83;;;5.07;;
68680;SDS011;55836;49.858;6.756;2023-03-21T07:10:42;10.93;;;5.07;;
68680;SDS011;55836;49.858;6.756;2023-03-21T07:13:10;8.70;;;5.50;;
68680;SDS011;55836;49.858;6.756;2023-03-21T07:15:36;7.20;;;5.07;;
68680;SDS011;55836;49.858;6.756;2023-03-21T07:18:05;9.03;;;5.80;;
68680;SDS011;55836;49.858;6.756;2023-03-21T07:20:32;8.57;;;6.00;;
68680;SDS011;55836;49.858;6.756;2023-03-21T07:22:58;7.60;;;5.23;;
68680;SDS011;55836;49.858;6.756;2023-03-21T07:25:24;8.07;;;4.40;;
68680;SDS011;55836;49.858;6.756;2023-03-21T07:27:50;9.27;;;5.50;;
68680;SDS011;55836;49.858;6.756;2023-03-21T07:30:17;8.90;;;5.40;;
68680;SDS011;55836;49.858;6.756;2023-03-21T07:32:43;6.13;;;4.80;;
68680;SDS011;55836;49.858;6.756;2023-03-21T07:35:12;6.97;;;4.53;;
68680;SDS011;55836;49.858;6.756;2023-03-21T07:37:40;9.37;;;5.27;;
68680;SDS011;55836;49.858;6.756;2023-03-21T07:40:06;11.33;;;6.80;;
68680;SDS011;55836;49.858;6.756;2023-03-21T07:42:37;12.50;;;7.60;;
68680;SDS011;55836;49.858;6.756;2023-03-21T07:45:03;14.37;;;7.27;;
68680;SDS011;55836;49.858;6.756;2023-03-21T07:47:30;14.03;;;7.83;;
68680;SDS011;55836;49.858;6.756;2023-03-21T07:49:56;8.23;;;6.33;;
68680;SDS011;55836;49.858;6.756;2023-03-21T07:52:22;10.43;;;6.93;;
68680;SDS011;55836;49.858;6.756;2023-03-21T07:54:48;10.23;;;6.43;;
68680;SDS011;55836;49.858;6.756;2023-03-21T07:57:14;11.00;;;6.23;;
68680;SDS011;55836;49.858;6.756;2023-03-21T07:59:41;8.37;;;5.30;;
68680;SDS011;55836;49.858;6.756;2023-03-21T08:02:12;13.63;;;6.50;;
68680;SDS011;55836;49.858;6.756;2023-03-21T08:04:39;9.87;;;5.23;;
68680;SDS011;55836;49.858;6.756;2023-03-21T08:07:05;9.03;;;5.30;;
68680;SDS011;55836;49.858;6.756;2023-03-21T08:09:31;9.80;;;5.97;;
68680;SDS011;55836;49.858;6.756;2023-03-21T08:11:57;9.67;;;5.80;;
68680;SDS011;55836;49.858;6.756;2023-03-21T08:14:23;16.63;;;8.10;;
68680;SDS011;55836;49.858;6.756;2023-03-21T08:16:49;11.97;;;6.43;;
68680;SDS011;55836;49.858;6.756;2023-03-21T08:19:15;8.53;;;5.80;;
68680;SDS011;55836;49.858;6.756;2023-03-21T08:21:44;13.93;;;7.20;;
68680;SDS011;55836;49.858;6.756;2023-03-21T08:24:10;15.27;;;7.03;;
68680;SDS011;55836;49.858;6.756;2023-03-21T08:26:36;14.63;;;8.43;;
68680;SDS011;55836;49.858;6.756;2023-03-21T08:29:03;16.47;;;8.03;;
68680;SDS011;55836;49.858;6.756;2023-03-21T08:31:29;11.63;;;6.03;;
68680;SDS011;55836;49.858;6.756;2023-03-21T08:33:55;11.77;;;6.17;;
68680;SDS011;55836;49.858;6.756;2023-03-21T08:36:21;11.63;;;5.80;;
68680;SDS011;55836;49.858;6.756;2023-03-21T08:38:48;9.67;;;5.67;;
68680;SDS011;55836;49.858;6.756;2023-03-21T08:41:18;11.60;;;6.27;;
68680;SDS011;55836;49.858;6.756;2023-03-21T08:43:46;11.93;;;5.90;;
68680;SDS011;55836;49.858;6.756;2023-03-21T08:46:12;13.27;;;6.50;;
68680;SDS011;55836;49.858;6.756;2023-03-21T08:48:38;7.57;;;5.90;;
68680;SDS011;55836;49.858;6.756;2023-03-21T08:51:05;9.03;;;5.77;;
68680;SDS011;55836;49.858;6.756;2023-03-21T08:53:31;11.33;;;6.60;;
68680;SDS011;55836;49.858;6.756;2023-03-21T08:55:57;10.00;;;5.43;;
68680;SDS011;55836;49.858;6.756;2023-03-21T08:58:24;12.07;;;6.03;;
68680;SDS011;55836;49.858;6.756;2023-03-21T09:00:50;11.90;;;6.23;;
68680;SDS011;55836;49.858;6.756;2023-03-21T09:03:17;10.97;;;5.80;;
68680;SDS011;55836;49.858;6.756;2023-03-21T09:05:44;9.80;;;5.93;;
68680;SDS011;55836;49.858;6.756;2023-03-21T09:08:10;12.27;;;6.03;;
68680;SDS011;55836;49.858;6.756;2023-03-21T09:10:39;12.53;;;5.73;;
68680;SDS011;55836;49.858;6.756;2023-03-21T09:13:05;11.53;;;5.37;;
68680;SDS011;55836;49.858;6.756;2023-03-21T09:15:32;10.40;;;6.60;;
68680;SDS011;55836;49.858;6.756;2023-03-21T09:17:59;12.60;;;7.00;;
68680;SDS011;55836;49.858;6.756;2023-03-21T09:20:39;9.10;;;6.47;;
68680;SDS011;55836;49.858;6.756;2023-03-21T09:23:07;14.57;;;7.30;;
68680;SDS011;55836;49.858;6.756;2023-03-21T09:25:34;12.13;;;6.17;;
68680;SDS011;55836;49.858;6.756;2023-03-21T09:28:00;10.57;;;6.00;;
68680;SDS011;55836;49.858;6.756;2023-03-21T09:30:29;11.63;;;6.40;;
68680;SDS011;55836;49.858;6.756;2023-03-21T09:32:57;10.67;;;6.57;;
68680;SDS011;55836;49.858;6.756;2023-03-21T09:35:24;13.33;;;6.77;;
68680;SDS011;55836;49.858;6.756;2023-03-21T09:37:52;11.30;;;6.60;;
68680;SDS011;55836;49.858;6.756;2023-03-21T09:40:23;12.83;;;6.53;;
68680;SDS011;55836;49.858;6.756;2023-03-21T09:45:26;10.57;;;6.67;;
68680;SDS011;55836;49.858;6.756;2023-03-21T09:47:54;11.03;;;5.93;;
68680;SDS011;55836;49.858;6.756;2023-03-21T09:50:27;11.17;;;6.37;;
68680;SDS011;55836;49.858;6.756;2023-03-21T09:55:24;11.20;;;7.57;;
68680;SDS011;55836;49.858;6.756;2023-03-21T10:00:32;16.13;;;6.60;;
68680;SDS011;55836;49.858;6.756;2023-03-21T10:03:00;11.40;;;6.03;;
68680;SDS011;55836;49.858;6.756;2023-03-21T10:05:31;7.13;;;5.07;;
68680;SDS011;55836;49.858;6.756;2023-03-21T10:08:08;9.53;;;5.90;;
68680;SDS011;55836;49.858;6.756;2023-03-21T10:10:38;10.27;;;6.10;;
68680;SDS011;55836;49.858;6.756;2023-03-21T10:13:09;11.07;;;6.17;;
68680;SDS011;55836;49.858;6.756;2023-03-21T10:15:37;8.70;;;6.13;;
68680;SDS011;55836;49.858;6.756;2023-03-21T10:18:04;11.47;;;6.07;;
68680;SDS011;55836;49.858;6.756;2023-03-21T10:20:32;10.00;;;6.03;;
68680;SDS011;55836;49.858;6.756;2023-03-21T10:22:59;10.10;;;6.20;;
68680;SDS011;55836;49.858;6.756;2023-03-21T10:25:30;7.70;;;5.50;;
68680;SDS011;55836;49.858;6.756;2023-03-21T10:27:56;10.63;;;6.00;;
68680;SDS011;55836;49.858;6.756;2023-03-21T10:30:26;10.70;;;6.30;;
68680;SDS011;55836;49.858;6.756;2023-03-21T10:32:53;10.97;;;6.33;;
68680;SDS011;55836;49.858;6.756;2023-03-21T10:35:20;12.70;;;6.77;;
68680;SDS011;55836;49.858;6.756;2023-03-21T10:37:46;10.07;;;6.23;;
68680;SDS011;55836;49.858;6.756;2023-03-21T10:40:13;11.57;;;6.10;;
68680;SDS011;55836;49.858;6.756;2023-03-21T10:42:40;13.10;;;7.10;;
68680;SDS011;55836;49.858;6.756;2023-03-21T10:45:13;12.67;;;6.13;;
68680;SDS011;55836;49.858;6.756;2023-03-21T10:47:40;9.87;;;6.10;;
68680;SDS011;55836;49.858;6.756;2023-03-21T10:50:07;11.93;;;6.90;;
68680;SDS011;55836;49.858;6.756;2023-03-21T10:52:37;10.77;;;6.17;;
68680;SDS011;55836;49.858;6.756;2023-03-21T10:55:17;11.83;;;6.90;;
68680;SDS011;55836;49.858;6.756;2023-03-21T10:57:45;12.93;;;6.47;;
68680;SDS011;55836;49.858;6.756;2023-03-21T11:00:19;9.43;;;5.87;;
68680;SDS011;55836;49.858;6.756;2023-03-21T11:02:46;11.13;;;6.37;;
68680;SDS011;55836;49.858;6.756;2023-03-21T11:05:21;10.00;;;5.23;;
68680;SDS011;55836;49.858;6.756;2023-03-21T11:07:58;9.57;;;5.50;;
68680;SDS011;55836;49.858;6.756;2023-03-21T11:10:31;9.53;;;5.83;;
68680;SDS011;55836;49.858;6.756;2023-03-21T11:13:00;11.10;;;5.90;;
68680;SDS011;55836;49.858;6.756;2023-03-21T11:15:31;8.53;;;5.13;;
68680;SDS011;55836;49.858;6.756;2023-03-21T11:17:58;10.70;;;5.63;;
68680;SDS011;55836;49.858;6.756;2023-03-21T11:20:24;6.40;;;5.20;;
68680;SDS011;55836;49.858;6.756;2023-03-21T11:22:53;12.20;;;6.43;;
68680;SDS011;55836;49.858;6.756;2023-03-21T11:25:40;11.07;;;5.67;;
68680;SDS011;55836;49.858;6.756;2023-03-21T11:28:13;8.57;;;5.67;;
68680;SDS011;55836;49.858;6.756;2023-03-21T11:30:56;10.93;;;6.40;;
68680;SDS011;55836;49.858;6.756;2023-03-21T11:33:27;6.93;;;5.70;;
68680;SDS011;55836;49.858;6.756;2023-03-21T11:35:57;10.30;;;5.53;;
68680;SDS011;55836;49.858;6.756;2023-03-21T11:38:24;8.40;;;5.83;;
68680;SDS011;55836;49.858;6.756;2023-03-21T11:40:52;10.77;;;6.80;;
68680;SDS011;55836;49.858;6.756;2023-03-21T11:45:56;14.93;;;6.57;;
68680;SDS011;55836;49.858;6.756;2023-03-21T11:48:22;11.43;;;6.90;;
68680;SDS011;55836;49.858;6.756;2023-03-21T11:50:49;10.07;;;7.13;;
68680;SDS011;55836;49.858;6.756;2023-03-21T11:53:21;9.43;;;7.10;;
68680;SDS011;55836;49.858;6.756;2023-03-21T11:58:39;10.93;;;6.83;;
68680;SDS011;55836;49.858;6.756;2023-03-21T12:01:11;9.80;;;6.57;;
68680;SDS011;55836;49.858;6.756;2023-03-21T12:03:47;7.77;;;6.17;;
68680;SDS011;55836;49.858;6.756;2023-03-21T12:06:23;8.70;;;6.43;;
68680;SDS011;55836;49.858;6.756;2023-03-21T12:08:53;10.80;;;5.90;;
68680;SDS011;55836;49.858;6.756;2023-03-21T12:11:44;8.63;;;5.63;;
68680;SDS011;55836;49.858;6.756;2023-03-21T12:14:27;11.37;;;6.27;;
68680;SDS011;55836;49.858;6.756;2023-03-21T12:19:48;10.33;;;6.50;;
68680;SDS011;55836;49.858;6.756;2023-03-21T12:24:54;8.80;;;5.90;;
68680;SDS011;55836;49.858;6.756;2023-03-21T12:27:30;8.90;;;6.13;;
68680;SDS011;55836;49.858;6.756;2023-03-21T12:38:22;8.93;;;5.20;;
68680;SDS011;55836;49.858;6.756;2023-03-21T12:46:03;5.40;;;4.20;;
68680;SDS011;55836;49.858;6.756;2023-03-21T12:51:00;8.40;;;4.90;;
68680;SDS011;55836;49.858;6.756;2023-03-21T12:53:36;6.20;;;4.17;;
68680;SDS011;55836;49.858;6.756;2023-03-21T12:56:06;5.97;;;4.00;;
68680;SDS011;55836;49.858;6.756;2023-03-21T12:58:38;4.97;;;3.87;;
68680;SDS011;55836;49.858;6.756;2023-03-21T13:01:06;6.20;;;4.07;;
68680;SDS011;55836;49.858;6.756;2023-03-21T13:03:36;8.17;;;4.03;;
68680;SDS011;55836;49.858;6.756;2023-03-21T13:06:05;6.57;;;4.23;;
68680;SDS011;55836;49.858;6.756;2023-03-21T13:08:40;7.50;;;4.60;;
68680;SDS011;55836;49.858;6.756;2023-03-21T13:11:09;6.00;;;4.10;;
68680;SDS011;55836;49.858;6.756;2023-03-21T13:13:46;5.27;;;4.17;;
68680;SDS011;55836;49.858;6.756;2023-03-21T13:27:01;7.27;;;4.43;;
68680;SDS011;55836;49.858;6.756;2023-03-21T13:29:32;5.87;;;3.63;;
68680;SDS011;55836;49.858;6.756;2023-03-21T13:32:06;6.67;;;4.10;;
68680;SDS011;55836;49.858;6.756;2023-03-21T13:34:33;7.37;;;4.50;;
68680;SDS011;55836;49.858;6.756;2023-03-21T13:36:59;6.63;;;4.27;;
68680;SDS011;55836;49.858;6.756;2023-03-21T13:39:26;6.47;;;4.57;;
68680;SDS011;55836;49.858;6.756;2023-03-21T13:41:53;6.97;;;4.20;;
68680;SDS011;55836;49.858;6.756;2023-03-21T13:46:53;8.70;;;4.90;;
68680;SDS011;55836;49.858;6.756;2023-03-21T13:49:30;5.30;;;4.27;;
68680;SDS011;55836;49.858;6.756;2023-03-21T13:51:57;5.63;;;4.60;;
68680;SDS011;55836;49.858;6.756;2023-03-21T13:54:28;6.77;;;5.47;;
68680;SDS011;55836;49.858;6.756;2023-03-21T13:56:56;10.10;;;5.60;;
68680;SDS011;55836;49.858;6.756;2023-03-21T14:04:25;8.90;;;6.53;;
68680;SDS011;55836;49.858;6.756;2023-03-21T14:07:00;12.03;;;6.30;;
68680;SDS011;55836;49.858;6.756;2023-03-21T14:09:31;8.47;;;6.20;;
68680;SDS011;55836;49.858;6.756;2023-03-21T14:11:59;7.80;;;6.27;;
68680;SDS011;55836;49.858;6.756;2023-03-21T14:14:28;12.47;;;6.53;;
68680;SDS011;55836;49.858;6.756;2023-03-21T14:16:57;9.23;;;5.70;;
68680;SDS011;55836;49.858;6.756;2023-03-21T14:19:30;8.20;;;6.33;;
68680;SDS011;55836;49.858;6.756;2023-03-21T14:21:57;10.20;;;6.47;;
68680;SDS011;55836;49.858;6.756;2023-03-21T14:24:23;10.80;;;6.20;;
68680;SDS011;55836;49.858;6.756;2023-03-21T14:26:51;9.77;;;6.17;;
68680;SDS011;55836;49.858;6.756;2023-03-21T14:29:25;9.93;;;6.73;;
68680;SDS011;55836;49.858;6.756;2023-03-21T14:31:54;12.43;;;7.77;;
68680;SDS011;55836;49.858;6.756;2023-03-21T14:34:21;10.33;;;6.63;;
68680;SDS011;55836;49.858;6.756;2023-03-21T14:36:47;10.77;;;7.13;;
68680;SDS011;55836;49.858;6.756;2023-03-21T14:39:19;9.30;;;6.90;;
68680;SDS011;55836;49.858;6.756;2023-03-21T14:41:47;9.40;;;6.33;;
68680;SDS011;55836;49.858;6.756;2023-03-21T14:46:39;10.73;;;7.00;;
68680;SDS011;55836;49.858;6.756;2023-03-21T14:51:38;11.10;;;6.70;;
68680;SDS011;55836;49.858;6.756;2023-03-21T14:54:07;8.37;;;6.80;;
68680;SDS011;55836;49.858;6.756;2023-03-21T14:56:34;10.77;;;6.80;;
68680;SDS011;55836;49.858;6.756;2023-03-21T14:59:01;9.97;;;6.10;;
68680;SDS011;55836;49.858;6.756;2023-03-21T15:01:28;8.70;;;6.70;;
68680;SDS011;55836;49.858;6.756;2023-03-21T15:03:55;9.33;;;7.87;;
68680;SDS011;55836;49.858;6.756;2023-03-21T15:06:22;9.23;;;6.93;;
68680;SDS011;55836;49.858;6.756;2023-03-21T15:11:27;10.90;;;7.37;;
68680;SDS011;55836;49.858;6.756;2023-03-21T15:13:54;9.53;;;6.37;;
68680;SDS011;55836;49.858;6.756;2023-03-21T15:16:20;9.33;;;6.20;;
68680;SDS011;55836;49.858;6.756;2023-03-21T15:18:46;6.90;;;5.80;;
68680;SDS011;55836;49.858;6.756;2023-03-21T15:21:17;8.03;;;6.60;;
68680;SDS011;55836;49.858;6.756;2023-03-21T15:23:53;10.47;;;6.47;;
68680;SDS011;55836;49.858;6.756;2023-03-21T15:26:21;8.57;;;6.97;;
68680;SDS011;55836;49.858;6.756;2023-03-21T15:28:49;10.77;;;6.70;;
68680;SDS011;55836;49.858;6.756;2023-03-21T15:31:16;8.23;;;6.53;;
68680;SDS011;55836;49.858;6.756;2023-03-21T15:33:47;8.67;;;6.67;;
68680;SDS011;55836;49.858;6.756;2023-03-21T15:36:17;10.23;;;7.30;;
68680;SDS011;55836;49.858;6.756;2023-03-21T15:38:43;11.07;;;7.00;;
68680;SDS011;55836;49.858;6.756;2023-03-21T15:43:52;10.80;;;7.47;;
68680;SDS011;55836;49.858;6.756;2023-03-21T15:54:29;12.40;;;6.73;;
68680;SDS011;55836;49.858;6.756;2023-03-21T15:56:59;7.57;;;5.97;;
68680;SDS011;55836;49.858;6.756;2023-03-21T15:59:50;9.60;;;6.50;;
68680;SDS011;55836;49.858;6.756;2023-03-21T16:02:18;8.87;;;6.20;;
68680;SDS011;55836;49.858;6.756;2023-03-21T16:04:58;9.50;;;7.27;;
68680;SDS011;55836;49.858;6.756;2023-03-21T16:07:25;10.10;;;7.30;;
68680;SDS011;55836;49.858;6.756;2023-03-21T16:09:56;12.47;;;6.63;;
68680;SDS011;55836;49.858;6.756;2023-03-21T16:12:22;9.57;;;6.60;;
68680;SDS011;55836;49.858;6.756;2023-03-21T16:14:48;13.67;;;6.53;;
68680;SDS011;55836;49.858;6.756;2023-03-21T16:17:21;11.13;;;7.03;;
68680;SDS011;55836;49.858;6.756;2023-03-21T16:19:51;10.27;;;6.73;;
68680;SDS011;55836;49.858;6.756;2023-03-21T16:22:17;8.60;;;6.63;;
68680;SDS011;55836;49.858;6.756;2023-03-21T16:24:45;7.17;;;6.13;;
68680;SDS011;55836;49.858;6.756;2023-03-21T16:27:11;7.73;;;6.00;;
68680;SDS011;55836;49.858;6.756;2023-03-21T16:29:37;8.17;;;5.33;;
68680;SDS011;55836;49.858;6.756;2023-03-21T16:32:03;6.33;;;5.57;;
68680;SDS011;55836;49.858;6.756;2023-03-21T16:34:30;9.67;;;6.10;;
68680;SDS011;55836;49.858;6.756;2023-03-21T16:36:56;12.90;;;7.33;;
68680;SDS011;55836;49.858;6.756;2023-03-21T16:39:23;9.30;;;6.17;;
68680;SDS011;55836;49.858;6.756;2023-03-21T16:41:50;10.10;;;5.80;;